createdAt,value
2022-10-14T00:01:27.141Z,13.65
2022-10-14T00:03:56.858Z,13.65
2022-10-14T00:06:27.742Z,13.65
2022-10-14T00:09:00.585Z,13.63
2022-10-14T00:11:31.338Z,13.67
2022-10-14T00:14:01.516Z,13.63
2022-10-14T00:16:31.984Z,13.67
2022-10-14T00:19:01.951Z,13.66
2022-10-14T00:21:31.606Z,13.66
2022-10-14T00:23:59.997Z,13.69
2022-10-14T00:26:30.977Z,13.64
2022-10-14T00:29:00.335Z,13.67
2022-10-14T00:31:32.613Z,13.69
2022-10-14T00:34:02.578Z,13.65
2022-10-14T00:36:31.050Z,13.68
2022-10-14T00:38:59.274Z,13.66
2022-10-14T00:41:30.193Z,13.68
2022-10-14T00:44:01.824Z,13.64
2022-10-14T00:46:32.043Z,13.62
2022-10-14T00:49:08.887Z,13.62
2022-10-14T00:51:39.959Z,13.60
2022-10-14T00:54:09.161Z,13.58
2022-10-14T00:56:38.040Z,13.61
2022-10-14T00:59:12.903Z,13.58
2022-10-14T01:01:41.155Z,13.59
2022-10-14T01:04:10.713Z,13.66
2022-10-14T01:06:48.973Z,13.64
2022-10-14T01:09:29.068Z,13.63
2022-10-14T01:12:28.024Z,13.60
2022-10-14T01:15:05.158Z,13.63
2022-10-14T01:17:45.389Z,13.62
2022-10-14T01:20:39.952Z,13.61
2022-10-14T01:23:32.171Z,13.62
2022-10-14T01:26:14.607Z,13.64
2022-10-14T01:28:53.215Z,13.68
2022-10-14T01:31:25.855Z,13.67
2022-10-14T01:33:57.940Z,13.67
2022-10-14T01:36:33.479Z,13.70
2022-10-14T01:39:09.777Z,13.73
2022-10-14T01:41:44.399Z,13.70
2022-10-14T01:44:15.508Z,13.70
2022-10-14T01:46:48.616Z,13.69
2022-10-14T01:49:21.158Z,13.71
2022-10-14T01:51:53.960Z,13.70
2022-10-14T01:54:26.486Z,13.68
2022-10-14T01:56:56.793Z,13.70
2022-10-14T01:59:25.885Z,13.71
2022-10-14T02:01:55.478Z,13.71
2022-10-14T02:04:24.741Z,13.70
2022-10-14T02:07:01.207Z,13.73
2022-10-14T02:09:37.402Z,13.73
2022-10-14T02:12:21.508Z,13.71
2022-10-14T02:14:54.159Z,13.73
2022-10-14T02:17:31.739Z,13.76
2022-10-14T02:20:06.474Z,13.78
2022-10-14T02:22:39.345Z,13.76
2022-10-14T02:25:27.579Z,13.75
2022-10-14T02:27:56.128Z,13.71
2022-10-14T02:30:27.126Z,13.75
2022-10-14T02:33:01.274Z,13.75
2022-10-14T02:35:31.901Z,13.79
2022-10-14T02:38:00.857Z,13.79
2022-10-14T02:40:34.549Z,13.76
2022-10-14T02:43:02.853Z,13.79
2022-10-14T02:45:31.002Z,13.79
2022-10-14T02:48:02.506Z,13.77
2022-10-14T02:50:31.187Z,13.78
2022-10-14T02:52:59.394Z,13.79
2022-10-14T02:55:27.765Z,13.79
2022-10-14T02:57:56.600Z,13.79
2022-10-14T03:00:27.480Z,13.79
2022-10-14T03:02:57.835Z,13.79
2022-10-14T03:05:31.230Z,13.80
2022-10-14T03:07:59.559Z,13.79
2022-10-14T03:10:29.817Z,13.80
2022-10-14T03:12:58.872Z,13.79
2022-10-14T03:15:32.043Z,13.78
2022-10-14T03:18:01.000Z,13.79
2022-10-14T03:20:39.722Z,13.79
2022-10-14T03:23:09.862Z,13.78
2022-10-14T03:25:39.498Z,13.79
2022-10-14T03:28:16.095Z,13.81
2022-10-14T03:30:51.333Z,13.79
2022-10-14T03:33:34.206Z,13.79
2022-10-14T03:36:15.525Z,13.79
2022-10-14T03:38:49.054Z,13.79
2022-10-14T03:41:37.538Z,13.80
2022-10-14T03:44:07.053Z,13.80
2022-10-14T03:46:37.591Z,13.79
2022-10-14T03:49:06.127Z,13.80
2022-10-14T03:51:36.075Z,13.81
2022-10-14T03:54:14.840Z,13.81
2022-10-14T03:56:43.140Z,13.83
2022-10-14T03:59:11.619Z,13.83
2022-10-14T04:01:40.230Z,13.84
2022-10-14T04:04:19.831Z,13.83
2022-10-14T04:06:50.784Z,13.84
2022-10-14T04:09:21.382Z,13.85
2022-10-14T04:11:49.926Z,13.82
2022-10-14T04:14:38.049Z,13.86
2022-10-14T04:17:07.472Z,13.86
2022-10-14T04:19:35.658Z,13.83
2022-10-14T04:22:06.093Z,13.85
2022-10-14T04:24:35.255Z,13.85
2022-10-14T04:27:03.677Z,13.85
2022-10-14T04:29:41.216Z,13.88
2022-10-14T04:32:16.100Z,13.84
2022-10-14T04:34:44.577Z,13.89
2022-10-14T04:37:17.562Z,13.88
2022-10-14T04:39:55.148Z,13.88
2022-10-14T04:42:24.424Z,13.86
2022-10-14T04:44:58.041Z,13.88
2022-10-14T04:47:37.451Z,13.90
2022-10-14T04:50:06.798Z,13.86
2022-10-14T04:52:38.071Z,13.86
2022-10-14T04:55:13.746Z,13.86
2022-10-14T04:57:44.326Z,13.86
2022-10-14T05:00:14.474Z,13.86
2022-10-14T05:03:05.740Z,13.85
2022-10-14T05:05:37.077Z,13.83
2022-10-14T05:08:08.686Z,13.86
2022-10-14T05:10:43.138Z,13.84
2022-10-14T05:13:18.642Z,13.85
2022-10-14T05:16:13.326Z,13.84
2022-10-14T05:18:41.639Z,13.89
2022-10-14T05:21:12.177Z,13.88
2022-10-14T05:23:52.700Z,13.86
2022-10-14T05:26:21.209Z,13.84
2022-10-14T05:28:52.892Z,13.89
2022-10-14T05:31:22.596Z,13.85
2022-10-14T05:34:02.467Z,13.84
2022-10-14T05:36:30.728Z,13.83
2022-10-14T05:39:00.354Z,13.85
2022-10-14T05:41:35.090Z,13.84
2022-10-14T05:44:04.382Z,13.86
2022-10-14T05:46:33.161Z,13.84
2022-10-14T05:49:05.957Z,13.85
2022-10-14T05:51:37.786Z,13.83
2022-10-14T05:54:14.873Z,13.82
2022-10-14T05:56:44.984Z,13.83
2022-10-14T05:59:14.092Z,13.82
2022-10-14T06:01:43.741Z,13.83
2022-10-14T06:04:18.725Z,13.85
2022-10-14T06:06:47.583Z,13.85
2022-10-14T06:09:18.712Z,13.83
2022-10-14T06:11:46.940Z,13.84
2022-10-14T06:14:15.239Z,13.86
2022-10-14T06:16:43.678Z,13.83
2022-10-14T06:19:11.955Z,13.86
2022-10-14T06:21:40.258Z,13.85
2022-10-14T06:24:08.994Z,13.83
2022-10-14T06:26:38.762Z,13.88
2022-10-14T06:29:07.122Z,13.85
2022-10-14T06:31:35.383Z,13.89
2022-10-14T06:34:06.075Z,13.83
2022-10-14T06:36:34.583Z,13.85
2022-10-14T06:39:02.951Z,13.83
2022-10-14T06:41:33.142Z,13.85
2022-10-14T06:44:02.726Z,13.88
2022-10-14T06:46:31.595Z,13.88
2022-10-14T06:48:59.819Z,13.89
2022-10-14T06:51:28.050Z,13.90
2022-10-14T06:53:56.254Z,13.90
2022-10-14T06:56:24.435Z,13.89
2022-10-14T06:58:54.768Z,13.91
2022-10-14T07:01:24.936Z,13.91
2022-10-14T07:03:55.904Z,13.93
2022-10-14T07:06:25.082Z,13.91
2022-10-14T07:08:53.201Z,13.93
2022-10-14T07:11:21.542Z,13.95
2022-10-14T07:13:49.776Z,13.99
2022-10-14T07:16:17.930Z,14.00
2022-10-14T07:18:47.539Z,13.99
2022-10-14T07:21:15.963Z,14.05
2022-10-14T07:23:44.173Z,14.01
2022-10-14T07:26:13.061Z,14.03
2022-10-14T07:28:41.256Z,14.04
2022-10-14T07:31:11.471Z,13.99
2022-10-14T07:33:40.928Z,14.05
2022-10-14T07:36:15.152Z,14.08
2022-10-14T07:38:46.241Z,14.09
2022-10-14T07:41:18.283Z,14.07
2022-10-14T07:43:47.661Z,14.09
2022-10-14T07:46:17.285Z,14.09
2022-10-14T07:48:56.772Z,14.08
2022-10-14T07:51:27.471Z,14.10
2022-10-14T07:53:56.197Z,14.14
2022-10-14T07:56:25.134Z,14.19
2022-10-14T07:58:53.657Z,14.29
2022-10-14T08:01:22.152Z,14.28
2022-10-14T08:03:50.489Z,14.25
2022-10-14T08:06:18.849Z,14.26
2022-10-14T08:08:48.449Z,14.33
2022-10-14T08:11:19.316Z,14.42
2022-10-14T08:13:47.829Z,14.43
2022-10-14T08:16:17.627Z,14.47
2022-10-14T08:18:46.781Z,14.54
2022-10-14T08:21:16.078Z,14.56
2022-10-14T08:23:44.577Z,14.54
2022-10-14T08:26:21.347Z,14.50
2022-10-14T08:28:52.266Z,14.49
2022-10-14T08:31:20.837Z,14.52
2022-10-14T08:33:49.363Z,14.52
2022-10-14T08:36:18.629Z,14.49
2022-10-14T08:38:47.152Z,14.59
2022-10-14T08:41:27.285Z,14.64
2022-10-14T08:44:06.995Z,14.60
2022-10-14T08:46:40.253Z,14.62
2022-10-14T08:49:16.780Z,14.65
2022-10-14T08:51:49.397Z,14.60
2022-10-14T08:54:27.297Z,14.54
2022-10-14T08:56:58.753Z,14.63
2022-10-14T08:59:28.137Z,14.68
2022-10-14T09:02:01.639Z,14.73
2022-10-14T09:04:39.258Z,14.80
2022-10-14T09:07:07.942Z,14.77
2022-10-14T09:09:43.019Z,14.74
2022-10-14T09:12:16.212Z,14.80
2022-10-14T09:14:48.478Z,14.86
2022-10-14T09:17:21.641Z,14.86
2022-10-14T09:19:53.425Z,14.89
2022-10-14T09:22:22.079Z,14.79
2022-10-14T09:24:50.585Z,14.79
2022-10-14T09:27:22.670Z,14.84
2022-10-14T09:29:54.384Z,14.88
2022-10-14T09:32:32.087Z,14.86
2022-10-14T09:35:00.473Z,14.88
2022-10-14T09:37:30.675Z,14.95
2022-10-14T09:40:03.117Z,14.93
2022-10-14T09:42:48.854Z,14.89
2022-10-14T09:45:19.594Z,14.99
2022-10-14T09:47:54.226Z,14.97
2022-10-14T09:50:26.241Z,14.99
2022-10-14T09:52:58.529Z,14.94
2022-10-14T09:55:26.948Z,14.97
2022-10-14T09:58:05.626Z,14.99
2022-10-14T10:00:39.591Z,15.10
2022-10-14T10:03:09.930Z,15.07
2022-10-14T10:05:40.690Z,15.17
2022-10-14T10:08:17.888Z,15.16
2022-10-14T10:11:03.711Z,15.08
2022-10-14T10:13:45.664Z,15.04
2022-10-14T10:16:23.437Z,15.03
2022-10-14T10:18:53.164Z,15.02
2022-10-14T10:21:26.554Z,15.07
2022-10-14T10:24:00.052Z,15.06
2022-10-14T10:26:31.900Z,15.11
2022-10-14T10:29:03.567Z,15.28
2022-10-14T10:32:07.587Z,15.45
2022-10-14T10:34:58.428Z,15.53
2022-10-14T10:37:29.410Z,15.51
2022-10-14T10:40:31.318Z,15.47
2022-10-14T10:43:33.812Z,15.61
2022-10-14T10:46:24.283Z,15.90
2022-10-14T10:48:57.807Z,15.89
2022-10-14T10:51:34.700Z,15.95
2022-10-14T10:54:20.361Z,16.07
2022-10-14T10:56:52.449Z,16.26
2022-10-14T10:59:35.324Z,16.21
2022-10-14T11:02:38.328Z,16.40
2022-10-14T11:05:13.676Z,16.41
2022-10-14T11:08:12.758Z,16.43
2022-10-14T11:11:09.656Z,16.26
2022-10-14T11:13:47.611Z,16.25
2022-10-14T11:16:26.670Z,16.07
2022-10-14T11:19:03.955Z,16.07
2022-10-14T11:21:40.595Z,16.04
2022-10-14T11:27:00.681Z,15.97
2022-10-14T11:29:53.885Z,15.99
2022-10-14T11:32:26.363Z,15.98
2022-10-14T11:35:06.074Z,15.98
2022-10-14T11:37:45.464Z,16.02
2022-10-14T11:40:22.788Z,16.31
2022-10-14T11:43:02.569Z,16.64
2022-10-14T11:45:49.960Z,16.74
2022-10-14T11:48:28.322Z,16.94
2022-10-14T11:51:03.220Z,16.89
2022-10-14T11:53:43.036Z,17.17
2022-10-14T11:56:24.232Z,17.32
2022-10-14T11:58:54.800Z,17.44
2022-10-14T12:01:34.190Z,17.34
2022-10-14T12:04:12.137Z,17.43
2022-10-14T12:06:46.591Z,17.38
2022-10-14T12:09:24.704Z,17.50
2022-10-14T12:11:58.284Z,17.53
2022-10-14T12:14:35.005Z,17.60
2022-10-14T12:17:06.743Z,17.46
2022-10-14T12:19:35.422Z,17.45
2022-10-14T12:22:14.687Z,17.46
2022-10-14T12:24:45.992Z,17.39
2022-10-14T12:27:16.189Z,17.39
2022-10-14T12:29:47.727Z,17.39
2022-10-14T12:32:24.630Z,17.43
2022-10-14T12:34:54.915Z,17.36
2022-10-14T12:37:52.567Z,17.34
2022-10-14T12:40:29.317Z,17.34
2022-10-14T12:43:16.904Z,17.36
2022-10-14T12:46:00.582Z,17.49
2022-10-14T12:48:33.304Z,17.68
2022-10-14T12:51:13.520Z,17.59
2022-10-14T12:53:58.114Z,17.74
2022-10-14T12:56:36.590Z,17.77
2022-10-14T12:59:07.778Z,17.79
2022-10-14T13:01:39.157Z,17.75
2022-10-14T13:04:20.273Z,17.80
2022-10-14T13:07:39.803Z,17.74
2022-10-14T13:10:46.811Z,17.70
2022-10-14T13:13:52.480Z,17.51
2022-10-14T13:17:03.516Z,17.58
2022-10-14T13:19:45.515Z,17.68
2022-10-14T13:22:36.482Z,17.69
2022-10-14T13:25:12.294Z,17.51
2022-10-14T13:28:03.472Z,17.45
2022-10-14T13:30:37.787Z,17.24
2022-10-14T13:33:15.473Z,17.22
2022-10-14T13:35:52.406Z,17.22
2022-10-14T13:38:23.708Z,17.22
2022-10-14T13:40:55.521Z,17.10
2022-10-14T13:43:39.624Z,17.00
2022-10-14T13:46:13.552Z,16.87
2022-10-14T13:48:45.650Z,16.80
2022-10-14T13:51:37.687Z,16.69
2022-10-14T13:54:21.083Z,16.61
2022-10-14T14:02:54.515Z,16.52
2022-10-14T14:05:27.954Z,16.34
2022-10-14T14:08:30.554Z,16.29
2022-10-14T14:11:14.899Z,16.41
2022-10-14T14:13:54.586Z,16.42
2022-10-14T14:16:31.009Z,16.40
2022-10-14T14:19:14.613Z,16.39
2022-10-14T14:21:42.794Z,16.41
2022-10-14T14:24:19.165Z,16.47
2022-10-14T14:26:55.441Z,16.54
2022-10-14T14:29:28.678Z,16.50
2022-10-14T14:32:07.197Z,16.35
2022-10-14T14:34:38.089Z,16.17
2022-10-14T14:40:00.030Z,15.93
2022-10-14T14:42:31.963Z,15.92
2022-10-14T14:45:04.286Z,16.02
2022-10-14T14:47:34.711Z,16.05
2022-10-14T14:50:28.954Z,16.00
2022-10-14T14:52:53.217Z,16.02
2022-10-14T14:56:07.880Z,15.96
2022-10-14T14:58:44.563Z,15.97
2022-10-14T15:01:20.864Z,15.95
2022-10-14T15:04:13.373Z,15.87
2022-10-14T15:06:51.024Z,15.96
2022-10-14T15:09:25.056Z,15.97
2022-10-14T15:11:55.849Z,15.89
2022-10-14T15:14:33.777Z,15.82
2022-10-14T15:17:05.689Z,15.85
2022-10-14T15:19:38.888Z,15.85
2022-10-14T15:22:32.693Z,15.76
2022-10-14T15:25:12.044Z,15.75
2022-10-14T15:27:48.359Z,15.75
2022-10-14T15:30:27.083Z,15.73
2022-10-14T15:32:58.553Z,15.70
2022-10-14T15:35:29.074Z,15.60
2022-10-14T15:37:57.356Z,15.61
2022-10-14T15:40:29.712Z,15.61
2022-10-14T15:42:58.239Z,15.59
2022-10-14T15:45:27.263Z,15.53
2022-10-14T15:48:02.671Z,15.47
2022-10-14T15:50:32.373Z,15.47
2022-10-14T15:53:00.607Z,15.43
2022-10-14T15:55:35.910Z,15.34
2022-10-14T15:58:07.430Z,15.33
2022-10-14T16:00:36.331Z,15.28
2022-10-14T16:03:06.418Z,15.17
2022-10-14T16:05:38.604Z,15.09
2022-10-14T16:08:13.890Z,15.01
2022-10-14T16:10:44.731Z,15.01
2022-10-14T16:13:13.344Z,14.92
2022-10-14T16:15:47.751Z,14.94
2022-10-14T16:18:18.294Z,14.88
2022-10-14T16:20:47.880Z,14.86
2022-10-14T16:23:16.750Z,14.80
2022-10-14T16:25:46.571Z,14.83
2022-10-14T16:28:21.761Z,14.81
2022-10-14T16:30:50.610Z,14.77
2022-10-14T16:33:21.622Z,14.73
2022-10-14T16:35:54.439Z,14.65
2022-10-14T16:38:24.469Z,14.57
2022-10-14T16:40:55.585Z,14.55
2022-10-14T16:43:23.927Z,14.52
2022-10-14T16:45:52.272Z,14.43
2022-10-14T16:48:20.842Z,14.33
2022-10-14T16:50:53.632Z,14.28
2022-10-14T16:53:43.584Z,14.19
2022-10-14T16:56:35.711Z,14.13
2022-10-14T16:59:05.359Z,14.12
2022-10-14T17:01:33.685Z,14.08
2022-10-14T17:04:03.523Z,14.05
2022-10-14T17:06:33.639Z,13.98
2022-10-14T17:09:01.908Z,13.98
2022-10-14T17:11:30.151Z,13.92
2022-10-14T17:14:01.101Z,13.90
2022-10-14T17:16:29.729Z,13.89
2022-10-14T17:18:58.946Z,13.88
2022-10-14T17:21:29.521Z,13.88
2022-10-14T17:24:02.550Z,13.84
2022-10-14T17:26:31.992Z,13.81
2022-10-14T17:29:00.617Z,13.79
2022-10-14T17:31:29.655Z,13.79
2022-10-14T17:33:59.755Z,13.79
2022-10-14T17:36:30.863Z,13.80
2022-10-14T17:39:00.984Z,13.73
2022-10-14T17:41:30.922Z,13.75
2022-10-14T17:44:01.440Z,13.71
2022-10-14T17:46:31.571Z,13.68
2022-10-14T17:49:03.749Z,13.66
2022-10-14T17:51:32.822Z,13.64
2022-10-14T17:54:03.956Z,13.63
2022-10-14T17:56:33.675Z,13.60
2022-10-14T17:59:03.677Z,13.58
2022-10-14T18:01:43.750Z,13.55
2022-10-14T18:06:55.113Z,13.51
2022-10-14T18:09:24.679Z,13.48
2022-10-14T18:12:09.883Z,13.51
2022-10-14T18:14:38.738Z,13.51
2022-10-14T18:17:07.662Z,13.50
2022-10-14T18:19:36.065Z,13.46
2022-10-14T18:22:06.599Z,13.45
2022-10-14T18:24:38.408Z,13.45
2022-10-14T18:27:07.555Z,13.37
2022-10-14T18:29:35.835Z,13.29
2022-10-14T18:32:04.378Z,13.30
2022-10-14T18:34:33.216Z,13.25
2022-10-14T18:37:01.498Z,13.24
2022-10-14T18:39:29.734Z,13.23
2022-10-14T18:41:59.472Z,13.29
2022-10-14T18:44:29.917Z,13.33
2022-10-14T18:46:58.141Z,13.27
2022-10-14T18:49:26.379Z,13.27
2022-10-14T18:51:55.271Z,13.27
2022-10-14T18:54:24.959Z,13.30
2022-10-14T18:56:54.845Z,13.32
2022-10-14T18:59:24.935Z,13.27
2022-10-14T19:01:54.031Z,13.26
2022-10-14T19:04:24.581Z,13.32
2022-10-14T19:06:52.941Z,13.39
2022-10-14T19:09:24.881Z,13.32
2022-10-14T19:11:53.308Z,13.33
2022-10-14T19:14:22.605Z,13.34
2022-10-14T19:16:52.237Z,13.43
2022-10-14T19:19:20.936Z,13.41
2022-10-14T19:21:54.442Z,13.45
2022-10-14T19:24:22.989Z,13.50
2022-10-14T19:26:51.617Z,13.43
2022-10-14T19:29:19.895Z,13.44
2022-10-14T19:31:51.035Z,13.44
2022-10-14T19:34:22.907Z,13.51
2022-10-14T19:36:52.999Z,13.49
2022-10-14T19:39:21.374Z,13.48
2022-10-14T19:41:49.548Z,13.49
2022-10-14T19:44:18.264Z,13.49
2022-10-14T19:46:46.960Z,13.48
2022-10-14T19:49:16.783Z,13.51
2022-10-14T19:51:46.471Z,13.47
2022-10-14T19:54:15.538Z,13.44
2022-10-14T19:56:44.201Z,13.45
2022-10-14T19:59:13.567Z,13.45
2022-10-14T20:01:41.969Z,13.43
2022-10-14T20:04:10.369Z,13.44
2022-10-14T20:06:40.102Z,13.39
2022-10-14T20:09:09.869Z,13.37
2022-10-14T20:11:38.258Z,13.38
2022-10-14T20:14:06.509Z,13.34
2022-10-14T20:16:35.146Z,13.32
2022-10-14T20:19:04.119Z,13.36
2022-10-14T20:21:32.351Z,13.38
2022-10-14T20:24:00.750Z,13.39
2022-10-14T20:26:31.037Z,13.40
2022-10-14T20:28:59.440Z,13.38
2022-10-14T20:31:27.927Z,13.41
2022-10-14T20:33:58.976Z,13.38
2022-10-14T20:36:27.480Z,13.36
2022-10-14T20:38:55.734Z,13.40
2022-10-14T20:41:25.886Z,13.39
2022-10-14T20:43:56.972Z,13.39
2022-10-14T20:46:25.596Z,13.37
2022-10-14T20:48:57.085Z,13.37
2022-10-14T20:51:28.133Z,13.39
2022-10-14T20:54:01.711Z,13.40
2022-10-14T20:56:34.046Z,13.38
2022-10-14T20:59:06.198Z,13.44
2022-10-14T21:01:36.171Z,13.46
2022-10-14T21:04:07.160Z,13.48
2022-10-14T21:06:36.354Z,13.53
2022-10-14T21:09:04.954Z,13.53
2022-10-14T21:11:33.305Z,13.52
2022-10-14T21:14:03.739Z,13.59
2022-10-14T21:16:34.290Z,13.61
2022-10-14T21:19:04.947Z,13.62
2022-10-14T21:21:37.054Z,13.63
2022-10-14T21:24:06.070Z,13.65
2022-10-14T21:26:34.515Z,13.63
2022-10-14T21:29:04.683Z,13.62
2022-10-14T21:31:33.060Z,13.60
2022-10-14T21:34:05.788Z,13.59
2022-10-14T21:36:35.355Z,13.59
2022-10-14T21:39:07.287Z,13.51
2022-10-14T21:41:36.183Z,13.48
2022-10-14T21:44:06.604Z,13.45
2022-10-14T21:46:35.493Z,13.39
2022-10-14T21:49:03.833Z,13.38
2022-10-14T21:51:35.382Z,13.34
2022-10-14T21:54:04.145Z,13.33
2022-10-14T21:56:32.402Z,13.32
2022-10-14T21:59:00.676Z,13.30
2022-10-14T22:01:31.025Z,13.32
2022-10-14T22:04:01.308Z,13.29
2022-10-14T22:06:29.890Z,13.30
2022-10-14T22:09:00.157Z,13.30
2022-10-14T22:11:30.016Z,13.25
2022-10-14T22:14:00.326Z,13.26
2022-10-14T22:16:30.748Z,13.30
2022-10-14T22:19:00.401Z,13.27
2022-10-14T22:21:32.721Z,13.30
2022-10-14T22:24:02.750Z,13.26
2022-10-14T22:26:31.368Z,13.30
2022-10-14T22:29:03.180Z,13.31
2022-10-14T22:31:34.024Z,13.34
2022-10-14T22:34:02.701Z,13.35
2022-10-14T22:36:32.241Z,13.36
2022-10-14T22:39:02.327Z,13.38
2022-10-14T22:41:35.126Z,13.40
2022-10-14T22:44:05.404Z,13.43
2022-10-14T22:46:36.404Z,13.43
2022-10-14T22:49:04.783Z,13.43
2022-10-14T22:51:35.571Z,13.37
2022-10-14T22:54:04.173Z,13.37
2022-10-14T22:56:33.404Z,13.35
2022-10-14T22:59:04.254Z,13.38
2022-10-14T23:01:33.893Z,13.37
2022-10-14T23:04:03.193Z,13.39
2022-10-14T23:06:32.647Z,13.36
2022-10-14T23:09:01.147Z,13.40
2022-10-14T23:11:30.870Z,13.40
2022-10-14T23:14:02.822Z,13.45
2022-10-14T23:16:36.280Z,13.47
2022-10-14T23:19:04.787Z,13.48
2022-10-14T23:21:34.726Z,13.50
2022-10-14T23:24:06.385Z,13.52
2022-10-14T23:26:35.985Z,13.54
2022-10-14T23:29:06.944Z,13.54
2022-10-14T23:31:37.813Z,13.53
2022-10-14T23:34:08.423Z,13.54
2022-10-14T23:36:38.137Z,13.53
2022-10-14T23:39:09.074Z,13.56
2022-10-14T23:41:37.452Z,13.55
2022-10-14T23:44:05.607Z,13.56
2022-10-14T23:46:33.799Z,13.52
2022-10-14T23:49:26.110Z,13.52
2022-10-14T23:51:51.600Z,13.54
2022-10-14T23:54:20.063Z,13.51
2022-10-14T23:56:48.268Z,13.49
2022-10-14T23:59:16.969Z,13.51
